Time;durP1;ratioP1;P1;durP2;ratioP2;P2;SDS_P1;SDS_P2;PMS_P1;PMS_P2;Temp;Humidity;BMP_temperature;BMP_pressure;BME280_temperature;BME280_humidity;BME280_pressure;Samples;Min_cycle;Max_cycle;Signal;HPM_P1;HPM_P2
2021/06/06 00:00:56;;;;;;;12.20;2.00;;;9.40;90.10;;;;;;4868502;28;20233;-78
2021/06/06 00:03:21;;;;;;;10.00;1.77;;;9.30;90.70;;;;;;4887146;28;20189;-77
2021/06/06 00:05:50;;;;;;;8.27;1.47;;;9.30;91.20;;;;;;4877711;28;20685;-78
2021/06/06 00:08:13;;;;;;;15.07;2.53;;;;;;;;;;4884711;28;20189;-77
2021/06/06 00:10:35;;;;;;;11.23;1.97;;;;;;;;;;4886173;28;20596;-77
2021/06/06 00:12:57;;;;;;;10.97;1.87;;;;;;;;;;4881689;28;20742;-77
2021/06/06 00:15:19;;;;;;;10.03;1.80;;;;;;;;;;4887060;28;20231;-77
2021/06/06 00:17:43;;;;;;;7.87;1.43;;;9.10;69.90;;;;;;4887292;28;20197;-78
2021/06/06 00:20:08;;;;;;;20.73;3.27;;;9.00;72.20;;;;;;4877130;28;20246;-77
2021/06/06 00:22:31;;;;;;;9.43;1.73;;;;;;;;;;4885893;28;20235;-77
2021/06/06 00:24:53;;;;;;;13.10;2.20;;;;;;;;;;4884543;28;20185;-78
2021/06/06 00:27:15;;;;;;;12.73;2.13;;;;;;;;;;4884288;28;20235;-79
2021/06/06 00:29:38;;;;;;;15.23;2.47;;;;;;;;;;4889446;28;20653;-77
2021/06/06 00:32:00;;;;;;;12.63;2.10;;;;;;;;;;4882203;28;20204;-78
2021/06/06 00:34:25;;;;;;;7.37;1.43;;;9.00;90.50;;;;;;4887091;28;20699;-78
2021/06/06 00:36:49;;;;;;;10.50;1.90;;;8.90;83.80;;;;;;4861086;28;20186;-78
2021/06/06 00:39:13;;;;;;;12.27;2.00;;;;;;;;;;4884439;28;20216;-78
2021/06/06 00:41:41;;;;;;;8.93;1.70;;;8.80;70.20;;;;;;4884375;28;20560;-77
2021/06/06 00:44:05;;;;;;;14.70;2.40;;;8.20;73.80;;;;;;4851074;28;20583;-77
2021/06/06 00:46:30;;;;;;;13.47;2.27;;;8.70;77.70;;;;;;4874441;28;20202;-78
2021/06/06 00:48:55;;;;;;;9.97;1.70;;;;;;;;;;4870875;28;20218;-78
2021/06/06 00:51:23;;;;;;;8.63;1.60;;;8.70;87.10;;;;;;4871565;28;20255;-78
2021/06/06 00:53:48;;;;;;;8.77;1.57;;;8.70;92.20;;;;;;4876736;28;20208;-77
2021/06/06 00:56:14;;;;;;;12.57;2.07;;;8.70;96.30;;;;;;4874629;28;20237;-78
2021/06/06 00:58:38;;;;;;;9.30;1.63;;;;;;;;;;4874637;28;20231;-78
2021/06/06 01:01:00;;;;;;;14.40;2.37;;;;;;;;;;4883697;28;20983;-77
2021/06/06 01:03:23;;;;;;;8.30;1.53;;;8.70;97.70;;;;;;4879799;28;20205;-78
2021/06/06 01:05:52;;;;;;;9.97;1.83;;;8.70;99.90;;;;;;4863162;28;20197;-77
2021/06/06 01:08:19;;;;;;;15.03;2.57;;;8.70;99.90;;;;;;4877908;28;20239;-78
2021/06/06 01:10:44;;;;;;;9.07;1.63;;;;;;;;;;4875920;28;20235;-78
2021/06/06 01:13:19;;;;;;;12.17;2.00;;;8.70;97.90;;;;;;4885997;28;20246;-78
2021/06/06 01:15:47;;;;;;;8.20;1.57;;;8.60;97.40;;;;;;4854312;28;20614;-77
2021/06/06 01:18:19;;;;;;;16.97;2.90;;;8.60;93.90;;;;;;4867997;28;20202;-78
2021/06/06 01:20:55;;;;;;;6.97;1.40;;;8.60;91.60;;;;;;4890858;28;20223;-78
2021/06/06 01:23:54;;;;;;;8.27;1.60;;;8.50;91.00;;;;;;4885850;28;20266;-78
2021/06/06 01:26:26;;;;;;;7.47;1.50;;;8.50;93.80;;;;;;4880981;28;20185;-79
2021/06/06 01:29:00;;;;;;;8.90;1.70;;;8.50;93.80;;;;;;4862563;28;20197;-78
2021/06/06 01:31:24;;;;;;;9.43;1.80;;;8.50;94.00;;;;;;4875005;28;20228;-78
2021/06/06 01:33:49;;;;;;;10.10;1.73;;;8.50;97.10;;;;;;4875596;28;20260;-78
2021/06/06 01:36:16;;;;;;;18.37;3.03;;;8.40;98.20;;;;;;4874191;28;20260;-78
2021/06/06 01:38:43;;;;;;;8.93;1.77;;;8.40;97.90;;;;;;4877188;28;20201;-79
2021/06/06 01:41:10;;;;;;;13.43;2.30;;;8.40;97.90;;;;;;4885934;28;20210;-78
2021/06/06 01:43:37;;;;;;;6.83;1.43;;;8.40;99.30;;;;;;4878221;28;20272;-79
2021/06/06 01:46:06;;;;;;;12.60;2.10;;;8.30;99.90;;;;;;4885920;28;20234;-78
2021/06/06 01:48:29;;;;;;;13.70;2.43;;;;;;;;;;4890119;28;20282;-79
2021/06/06 01:50:57;;;;;;;11.47;2.10;;;8.40;99.90;;;;;;4883687;28;20904;-79
2021/06/06 01:53:21;;;;;;;7.27;1.47;;;8.40;99.90;;;;;;4890812;28;20294;-78
2021/06/06 01:55:49;;;;;;;7.00;1.40;;;8.40;99.90;;;;;;4877433;28;20756;-78
2021/06/06 01:58:15;;;;;;;9.93;1.80;;;8.40;99.90;;;;;;4886714;28;20254;-78
2021/06/06 02:00:50;;;;;;;22.47;3.90;;;8.40;99.90;;;;;;4874807;28;20185;-78
2021/06/06 02:03:24;;;;;;;12.80;2.50;;;;;;;;;;4888338;28;20313;-78
2021/06/06 02:05:49;;;;;;;9.90;2.10;;;8.40;99.90;;;;;;4881222;28;20194;-77
2021/06/06 02:08:16;;;;;;;15.00;2.80;;;8.30;99.90;;;;;;4880836;28;20726;-78
2021/06/06 02:10:45;;;;;;;7.93;1.90;;;8.30;99.90;;;;;;4884151;28;20643;-76
2021/06/06 02:13:13;;;;;;;12.40;2.47;;;8.30;99.90;;;;;;4881190;28;20213;-79
2021/06/06 02:15:39;;;;;;;7.93;1.63;;;8.20;99.90;;;;;;4875203;28;20248;-78
2021/06/06 02:18:11;;;;;;;18.43;3.20;;;8.20;99.90;;;;;;4867063;28;20271;-77
2021/06/06 02:20:37;;;;;;;10.87;2.17;;;8.20;99.90;;;;;;4873285;28;20202;-77
2021/06/06 02:22:59;;;;;;;15.27;2.83;;;;;;;;;;4881155;28;20266;-78
2021/06/06 02:25:26;;;;;;;13.07;2.43;;;8.10;99.90;;;;;;4862658;28;20556;-77
2021/06/06 02:28:04;;;;;;;11.17;2.10;;;8.10;99.90;;;;;;4878091;28;20181;-78
2021/06/06 02:30:33;;;;;;;10.03;2.10;;;8.00;99.90;;;;;;4875047;28;20200;-77
2021/06/06 02:33:03;;;;;;;12.30;2.30;;;8.00;99.90;;;;;;4869844;28;20224;-77
2021/06/06 02:35:29;;;;;;;10.93;2.13;;;8.10;99.90;;;;;;4872619;28;20209;-78
2021/06/06 02:37:57;;;;;;;8.60;1.73;;;8.10;99.90;;;;;;4869374;28;20800;-78
2021/06/06 02:40:27;;;;;;;15.93;2.83;;;8.10;99.90;;;;;;4872147;28;20213;-78
2021/06/06 02:42:54;;;;;;;9.17;1.73;;;8.10;99.90;;;;;;4874402;28;20201;-78
2021/06/06 02:45:21;;;;;;;10.57;2.03;;;8.20;99.90;;;;;;4882187;28;20196;-78
2021/06/06 02:47:45;;;;;;;7.57;1.53;;;;;;;;;;4860814;28;20713;-78
2021/06/06 02:50:20;;;;;;;12.87;2.37;;;8.20;99.90;;;;;;4885168;28;20184;-77
2021/06/06 02:52:48;;;;;;;5.07;1.13;;;8.20;99.90;;;;;;4884838;28;20269;-78
2021/06/06 02:55:21;;;;;;;9.50;1.87;;;8.20;99.90;;;;;;4864154;28;20244;-77
2021/06/06 02:57:50;;;;;;;8.50;1.63;;;8.30;99.90;;;;;;4875518;28;20196;-78
2021/06/06 03:00:18;;;;;;;17.10;3.10;;;8.20;99.90;;;;;;4872671;28;20212;-78
2021/06/06 03:02:48;;;;;;;4.73;1.10;;;8.20;99.90;;;;;;4859546;28;20192;-78
2021/06/06 03:05:17;;;;;;;17.30;3.17;;;8.30;99.90;;;;;;4885613;28;20234;-78
2021/06/06 03:07:43;;;;;;;10.53;2.07;;;8.30;99.90;;;;;;4878239;28;20262;-78
2021/06/06 03:10:07;;;;;;;13.23;2.43;;;8.30;99.90;;;;;;4877796;28;20198;-78
2021/06/06 03:12:34;;;;;;;8.77;1.70;;;;;;;;;;4886843;28;20279;-78
2021/06/06 03:15:00;;;;;;;9.50;1.87;;;8.30;99.90;;;;;;4886879;28;20239;-77
2021/06/06 03:17:32;;;;;;;8.90;1.80;;;8.40;99.90;;;;;;4877532;28;20226;-78
2021/06/06 03:19:59;;;;;;;7.13;1.57;;;8.40;99.90;;;;;;4877342;28;20209;-78
2021/06/06 03:22:28;;;;;;;8.97;1.80;;;8.50;99.90;;;;;;4878314;28;20264;-77
2021/06/06 03:24:56;;;;;;;8.37;1.63;;;8.60;99.90;;;;;;4873252;28;20198;-78
2021/06/06 03:27:24;;;;;;;7.50;1.47;;;8.70;99.90;;;;;;4881921;28;20197;-76
2021/06/06 03:29:57;;;;;;;7.60;1.57;;;8.70;99.90;;;;;;4857185;28;20187;-79
2021/06/06 03:32:24;;;;;;;9.40;1.90;;;8.80;99.90;;;;;;4889070;28;20196;-79
2021/06/06 03:34:49;;;;;;;6.87;1.40;;;;;;;;;;4876993;28;20252;-78
2021/06/06 03:37:12;;;;;;;15.17;2.70;;;;;;;;;;4882795;28;20196;-79
2021/06/06 03:39:50;;;;;;;12.63;2.37;;;8.90;99.90;;;;;;4882579;28;20573;-78
2021/06/06 03:42:19;;;;;;;7.80;1.53;;;;;;;;;;4890965;28;20650;-79
2021/06/06 03:44:44;;;;;;;6.53;1.53;;;;;;;;;;4877885;28;20221;-78
2021/06/06 03:47:07;;;;;;;13.17;2.33;;;9.20;99.90;;;;;;4884097;28;20201;-78
2021/06/06 03:49:30;;;;;;;17.13;2.97;;;;;;;;;;4886155;28;20242;-76
2021/06/06 03:51:53;;;;;;;8.07;1.60;;;;;;;;;;4885876;28;20654;-77
2021/06/06 03:54:19;;;;;;;13.27;2.47;;;9.80;99.90;;;;;;4887233;28;20224;-77
2021/06/06 03:56:44;;;;;;;9.20;1.77;;;9.90;99.90;;;;;;4882230;28;20617;-78
2021/06/06 03:59:11;;;;;;;13.17;2.47;;;;;;;;;;4884560;28;20702;-77
2021/06/06 04:01:33;;;;;;;9.47;1.83;;;;;;;;;;4883293;28;20181;-78
2021/06/06 04:03:56;;;;;;;5.87;1.27;;;;;;;;;;4885202;28;20269;-77
2021/06/06 04:06:19;;;;;;;11.17;2.07;;;;;;;;;;4885187;28;20599;-78
2021/06/06 04:08:44;;;;;;;11.00;1.97;;;;;;;;;;4875592;28;20254;-78
2021/06/06 04:11:12;;;;;;;16.03;2.70;;;;;;;;;;4885398;28;20580;-79
2021/06/06 04:13:40;;;;;;;10.30;1.87;;;10.50;99.90;;;;;;4885704;28;20225;-78
2021/06/06 04:16:05;;;;;;;11.33;2.07;;;10.50;99.90;;;;;;4887338;28;20188;-78
2021/06/06 04:18:32;;;;;;;9.17;1.73;;;10.50;99.90;;;;;;4880925;28;20208;-79
2021/06/06 04:20:57;;;;;;;10.37;1.90;;;10.60;99.90;;;;;;4877794;28;20218;-78
2021/06/06 04:23:22;;;;;;;6.43;1.33;;;10.60;99.90;;;;;;4882259;28;20196;-78
2021/06/06 04:25:45;;;;;;;10.23;1.93;;;10.70;99.90;;;;;;4872185;28;20322;-79
2021/06/06 04:28:11;;;;;;;16.03;2.70;;;;;;;;;;4875619;28;20206;-79
2021/06/06 04:30:36;;;;;;;7.17;1.40;;;10.80;99.90;;;;;;4885184;28;20629;-78
2021/06/06 04:33:02;;;;;;;8.50;1.53;;;;;;;;;;4860611;28;20684;-78
2021/06/06 04:35:25;;;;;;;8.00;1.50;;;;;;;;;;4881287;28;20222;-78
2021/06/06 04:37:52;;;;;;;6.40;1.30;;;;;;;;;;4886557;28;20242;-76
2021/06/06 04:40:16;;;;;;;16.73;2.70;;;11.20;99.90;;;;;;4887378;28;20220;-76
2021/06/06 04:42:40;;;;;;;7.90;1.50;;;;;;;;;;4884204;28;20201;-76
2021/06/06 04:45:06;;;;;;;12.83;2.23;;;11.40;99.90;;;;;;4886583;28;20270;-76
2021/06/06 04:47:30;;;;;;;11.83;1.97;;;11.50;99.90;;;;;;4879476;28;20701;-77
2021/06/06 04:49:56;;;;;;;6.50;1.20;;;;;;;;;;4877858;28;20190;-77
2021/06/06 04:52:18;;;;;;;9.07;1.63;;;;;;;;;;4846568;28;20549;-77
2021/06/06 04:54:44;;;;;;;5.57;1.13;;;;;;;;;;4879163;28;20735;-76
2021/06/06 04:57:08;;;;;;;13.80;2.20;;;11.80;99.90;;;;;;4886838;28;20267;-76
2021/06/06 04:59:31;;;;;;;12.20;2.13;;;;;;;;;;4878467;28;20263;-78
2021/06/06 05:01:55;;;;;;;8.43;1.60;;;;;;;;;;4879767;28;20746;-78
2021/06/06 05:04:19;;;;;;;7.87;1.47;;;12.20;99.90;;;;;;4884760;28;20723;-78
2021/06/06 05:06:42;;;;;;;7.63;1.40;;;;;;;;;;4886953;28;20189;-78
2021/06/06 05:09:10;;;;;;;14.87;2.50;;;;;;;;;;4881997;28;20201;-78
2021/06/06 05:11:36;;;;;;;14.07;2.27;;;;;;;;;;4889477;28;20188;-78
2021/06/06 05:14:02;;;;;;;10.57;1.87;;;;;;;;;;4879889;28;20644;-78
2021/06/06 05:16:25;;;;;;;8.63;1.43;;;;;;;;;;4884212;28;20622;-78
2021/06/06 05:18:48;;;;;;;8.93;1.60;;;;;;;;;;4882104;28;20197;-78
2021/06/06 05:21:12;;;;;;;12.23;2.03;;;12.90;99.90;;;;;;4888018;28;20204;-78
2021/06/06 05:23:37;;;;;;;8.00;1.37;;;;;;;;;;4874763;28;20205;-78
2021/06/06 05:26:05;;;;;;;9.40;1.60;;;13.10;99.90;;;;;;4881847;28;20197;-77
2021/06/06 05:28:31;;;;;;;10.80;1.80;;;13.30;99.90;;;;;;4882931;28;20197;-77
2021/06/06 05:30:54;;;;;;;8.77;1.57;;;13.40;99.90;;;;;;4880533;28;20185;-77
2021/06/06 05:33:17;;;;;;;13.77;2.33;;;;;;;;;;4883165;28;20217;-78
2021/06/06 05:35:40;;;;;;;7.67;1.40;;;13.60;99.90;;;;;;4886804;28;20190;-77
2021/06/06 05:38:05;;;;;;;9.73;1.63;;;13.70;99.90;;;;;;4887333;28;21022;-77
2021/06/06 05:40:29;;;;;;;12.43;2.13;;;13.90;99.90;;;;;;4883695;28;20186;-78
2021/06/06 05:42:51;;;;;;;12.67;2.13;;;;;;;;;;4861910;28;20221;-77
2021/06/06 05:45:15;;;;;;;17.10;2.70;;;14.20;7.90;;;;;;4882863;28;20193;-76
2021/06/06 05:47:38;;;;;;;9.83;1.77;;;;;;;;;;4882975;28;20185;-77
2021/06/06 05:50:00;;;;;;;7.03;1.27;;;;;;;;;;4882320;28;20247;-77
2021/06/06 05:52:33;;;;;;;10.70;1.73;;;;;;;;;;4873043;28;20255;-77
2021/06/06 05:54:56;;;;;;;8.77;1.43;;;14.90;1.00;;;;;;4874869;28;20540;-78
2021/06/06 05:57:18;;;;;;;8.83;1.43;;;;;;;;;;4884646;28;20189;-78
2021/06/06 05:59:40;;;;;;;12.40;2.00;;;;;;;;;;4882771;28;20614;-77
2021/06/06 06:02:03;;;;;;;12.57;2.00;;;;;;;;;;4883163;28;20250;-77
2021/06/06 06:04:25;;;;;;;6.73;1.10;;;;;;;;;;4883890;28;20677;-76
2021/06/06 06:06:47;;;;;;;8.63;1.40;;;;;;;;;;4882865;28;20188;-75
2021/06/06 06:09:10;;;;;;;14.83;2.37;;;;;;;;;;4883044;28;20177;-77
2021/06/06 06:11:33;;;;;;;10.97;1.80;;;16.00;99.90;;;;;;4884523;28;20251;-77
2021/06/06 06:13:56;;;;;;;10.93;1.80;;;;;;;;;;4885948;28;20265;-78
2021/06/06 06:16:25;;;;;;;13.97;2.20;;;16.10;99.90;;;;;;4882888;28;20198;-77
2021/06/06 06:18:49;;;;;;;7.50;1.20;;;16.40;1.00;;;;;;4875791;28;20238;-78
2021/06/06 06:21:14;;;;;;;15.03;2.30;;;16.50;53.80;;;;;;4882507;28;20193;-77
2021/06/06 06:23:38;;;;;;;8.37;1.43;;;;;;;;;;4864835;28;20217;-79
2021/06/06 06:26:00;;;;;;;10.63;1.73;;;;;;;;;;4882462;28;20181;-77
2021/06/06 06:28:24;;;;;;;9.20;1.57;;;16.80;1.00;;;;;;4868621;28;20190;-77
2021/06/06 06:30:53;;;;;;;10.63;1.67;;;;;;;;;;4888604;28;20284;-78
2021/06/06 06:33:29;;;;;;;10.93;1.70;;;;;;;;;;4864929;28;20260;-77
2021/06/06 06:35:51;;;;;;;7.23;1.10;;;;;;;;;;4885896;28;20184;-78
2021/06/06 06:38:13;;;;;;;12.43;1.93;;;17.30;99.90;;;;;;4884138;28;20200;-78
2021/06/06 06:40:37;;;;;;;13.90;2.03;;;17.30;99.90;;;;;;4880789;28;20244;-77
2021/06/06 06:42:59;;;;;;;16.07;2.53;;;;;;;;;;4884833;28;20216;-79
2021/06/06 06:45:25;;;;;;;13.57;2.10;;;17.50;99.90;;;;;;4876707;28;20235;-77
2021/06/06 06:47:48;;;;;;;10.33;1.57;;;17.60;1.00;;;;;;4879581;28;20581;-77
2021/06/06 06:50:12;;;;;;;15.43;2.40;;;17.80;1.00;;;;;;4885873;28;20556;-80
2021/06/06 06:52:37;;;;;;;11.50;1.83;;;;;;;;;;4886613;28;20184;-78
2021/06/06 06:54:59;;;;;;;12.20;1.87;;;;;;;;;;4884600;28;20290;-76
2021/06/06 06:57:21;;;;;;;11.97;1.87;;;;;;;;;;4890109;28;20185;-78
2021/06/06 06:59:43;;;;;;;8.07;1.33;;;;;;;;;;4879992;28;20197;-76
2021/06/06 07:02:07;;;;;;;15.03;2.23;;;18.50;1.00;;;;;;4887802;28;20231;-77
2021/06/06 07:04:30;;;;;;;10.60;1.70;;;;;;;;;;4886471;28;20213;-79
2021/06/06 07:06:53;;;;;;;7.03;1.17;;;18.90;99.90;;;;;;4888935;28;20674;-77
2021/06/06 07:09:15;;;;;;;14.13;2.13;;;;;;;;;;4878160;28;20633;-77
2021/06/06 07:11:38;;;;;;;11.40;1.83;;;;;;;;;;4889567;28;20764;-78
2021/06/06 07:14:00;;;;;;;11.47;1.57;;;;;;;;;;4893116;28;20220;-78
2021/06/06 07:16:22;;;;;;;13.17;1.70;;;;;;;;;;4867292;28;21128;-75
2021/06/06 07:18:47;;;;;;;14.50;1.90;;;20.50;1.00;;;;;;4879664;28;20192;-79
2021/06/06 07:21:13;;;;;;;22.57;2.73;;;20.80;1.00;;;;;;4879573;28;20614;-78
2021/06/06 07:23:35;;;;;;;22.27;2.77;;;20.90;1.00;;;;;;4878908;28;20199;-78
2021/06/06 07:26:00;;;;;;;10.80;1.43;;;21.10;1.00;;;;;;4909694;28;20235;-80
2021/06/06 07:28:25;;;;;;;12.63;1.70;;;21.40;1.00;;;;;;4893040;28;20231;-75
2021/06/06 07:30:49;;;;;;;7.63;1.10;;;21.70;1.00;;;;;;4889509;28;20194;-78
2021/06/06 07:33:11;;;;;;;20.23;2.50;;;;;;;;;;4895300;28;20211;-77
2021/06/06 07:35:41;;;;;;;14.03;1.90;;;22.10;99.90;;;;;;4896820;28;20991;-78
2021/06/06 07:38:04;;;;;;;16.73;2.13;;;22.40;99.90;;;;;;4895733;28;20260;-77
2021/06/06 07:40:29;;;;;;;10.03;1.37;;;23.00;99.90;;;;;;4896729;28;20656;-76
2021/06/06 07:42:52;;;;;;;13.87;1.83;;;;;;;;;;4895182;28;20204;-77
2021/06/06 07:45:15;;;;;;;16.93;2.27;;;24.30;99.90;;;;;;4896381;28;20215;-76
2021/06/06 07:47:40;;;;;;;9.93;1.40;;;;;;;;;;4897034;28;20188;-78
2021/06/06 07:50:04;;;;;;;17.47;2.33;;;24.50;99.90;;;;;;4885062;28;20702;-79
2021/06/06 07:52:27;;;;;;;14.30;1.97;;;24.20;99.90;;;;;;4875876;28;20235;-79
2021/06/06 07:54:50;;;;;;;14.40;2.00;;;;;;;;;;4876308;28;20259;-78
2021/06/06 07:57:12;;;;;;;18.97;2.57;;;;;;;;;;4892253;28;20200;-77
2021/06/06 07:59:34;;;;;;;22.97;3.03;;;;;;;;;;4885235;28;20182;-79
2021/06/06 08:01:57;;;;;;;14.03;1.93;;;;;;;;;;4879127;28;20239;-81
2021/06/06 08:04:20;;;;;;;18.07;2.40;;;;;;;;;;4885427;28;20209;-76
2021/06/06 08:06:42;;;;;;;13.07;1.80;;;;;;;;;;4886789;28;20242;-78
2021/06/06 08:09:06;;;;;;;20.77;2.73;;;23.10;99.90;;;;;;4886727;28;20186;-79
2021/06/06 08:11:28;;;;;;;16.43;2.30;;;;;;;;;;4880000;28;20247;-79
2021/06/06 08:13:52;;;;;;;9.83;1.40;;;;;;;;;;4881074;28;20213;-81
2021/06/06 08:16:14;;;;;;;26.47;3.40;;;;;;;;;;4887287;28;20197;-79
2021/06/06 08:18:39;;;;;;;14.10;1.90;;;23.10;99.90;;;;;;4885540;28;20185;-75
2021/06/06 08:21:06;;;;;;;15.20;2.10;;;23.10;99.90;;;;;;4878456;28;20197;-76
2021/06/06 08:23:28;;;;;;;18.47;2.47;;;;;;;;;;4884428;28;20187;-77
2021/06/06 08:25:52;;;;;;;13.53;1.93;;;22.80;99.90;;;;;;4889649;28;20689;-78
2021/06/06 08:28:15;;;;;;;27.00;3.53;;;22.80;99.90;;;;;;4882735;28;20202;-79
2021/06/06 08:30:41;;;;;;;11.57;1.63;;;22.80;99.90;;;;;;4875986;28;20725;-81
2021/06/06 08:33:03;;;;;;;16.23;2.20;;;;;;;;;;4889007;28;20243;-82
2021/06/06 08:35:26;;;;;;;19.07;2.50;;;;;;;;;;4888269;28;20683;-80
2021/06/06 08:37:48;;;;;;;13.40;1.83;;;;;;;;;;4878534;28;20192;-79
2021/06/06 08:40:13;;;;;;;20.63;2.70;;;23.80;99.90;;;;;;4861000;28;20181;-78
2021/06/06 08:42:41;;;;;;;11.17;1.57;;;24.10;99.90;;;;;;4858700;28;20254;-80
2021/06/06 08:45:13;;;;;;;23.77;3.03;;;24.50;99.90;;;;;;4884588;28;20270;-75
2021/06/06 08:47:37;;;;;;;17.63;2.30;;;24.80;99.90;;;;;;4876982;28;20191;-80
2021/06/06 08:50:01;;;;;;;12.40;1.70;;;25.00;99.90;;;;;;4870364;28;20191;-79
2021/06/06 08:52:35;;;;;;;17.20;2.13;;;25.30;99.90;;;;;;4878115;28;20190;-79
2021/06/06 08:55:05;;;;;;;22.00;2.77;;;25.70;99.90;;;;;;4876430;28;20584;-77
2021/06/06 08:57:34;;;;;;;24.80;3.30;;;26.00;99.90;;;;;;4862928;28;20221;-78
2021/06/06 08:59:59;;;;;;;30.33;5.07;;;26.30;99.90;;;;;;4874061;28;20203;-78
2021/06/06 09:02:26;;;;;;;27.10;3.40;;;26.60;99.90;;;;;;4869552;28;20204;-80
2021/06/06 09:04:48;;;;;;;21.37;2.73;;;;;;;;;;4879084;28;20609;-75
2021/06/06 09:07:16;;;;;;;35.17;4.37;;;25.70;99.90;;;;;;4872688;28;20590;-77
2021/06/06 09:09:40;;;;;;;25.70;3.27;;;26.10;99.90;;;;;;4877616;28;20195;-77
2021/06/06 09:12:06;;;;;;;18.40;2.40;;;26.70;99.90;;;;;;4868531;28;20245;-80
2021/06/06 09:14:29;;;;;;;27.20;13.90;;;;;;;;;;4884051;28;20613;-74
2021/06/06 09:17:00;;;;;;;81.60;74.67;;;27.90;99.90;;;;;;4884339;28;20188;-77
2021/06/06 09:19:23;;;;;;;254.80;226.67;;;28.60;99.90;;;;;;4884418;28;20261;-76
2021/06/06 09:21:53;;;;;;;226.37;206.57;;;29.30;99.90;;;;;;4885421;28;20186;-76
2021/06/06 09:24:22;;;;;;;115.97;105.60;;;30.20;99.90;;;;;;4866551;28;20250;-76
2021/06/06 09:26:44;;;;;;;78.27;72.60;;;;;;;;;;4855715;28;20216;-75
2021/06/06 09:29:19;;;;;;;72.23;57.00;;;32.70;99.90;;;;;;4863091;28;20204;-77
2021/06/06 09:31:41;;;;;;;55.92;48.15;;;;;;;;;;4883478;28;20758;-77
2021/06/06 09:34:09;;;;;;;98.00;89.43;;;37.00;99.90;;;;;;4864967;28;20717;-77
2021/06/06 09:36:33;;;;;;;307.42;286.30;;;38.70;99.90;;;;;;4883527;28;20717;-76
2021/06/06 09:39:07;;;;;;;248.20;233.77;;;39.70;99.90;;;;;;4881391;28;20185;-78
2021/06/06 09:41:33;;;;;;;356.48;333.13;;;41.20;99.90;;;;;;4874163;28;20772;-76
2021/06/06 09:44:02;;;;;;;318.15;299.67;;;42.40;99.90;;;;;;4882200;28;20262;-77
2021/06/06 09:46:25;;;;;;;419.55;386.73;;;;;;;;;;4872979;28;20213;-77
2021/06/06 09:48:49;;;;;;;430.70;399.70;;;44.20;99.90;;;;;;4862263;28;20231;-84
2021/06/06 09:51:18;;;;;;;499.83;458.00;;;44.80;99.90;;;;;;4874271;28;20232;-78
2021/06/06 09:53:41;;;;;;;510.88;466.08;;;;;;;;;;4873284;28;20675;-79
2021/06/06 09:56:09;;;;;;;522.63;481.38;;;45.50;99.90;;;;;;4887115;28;20555;-78
2021/06/06 09:58:34;;;;;;;508.63;467.95;;;46.20;99.90;;;;;;4858111;28;20214;-83
2021/06/06 10:01:05;;;;;;;503.70;466.45;;;46.80;99.90;;;;;;4880840;28;20181;-78
2021/06/06 10:03:32;;;;;;;518.15;479.13;;;47.00;99.90;;;;;;4884656;28;20254;-78
2021/06/06 10:06:11;;;;;;;485.02;452.85;;;47.40;99.90;;;;;;4878282;28;20185;-82
2021/06/06 10:08:34;;;;;;;486.77;453.98;;;47.60;99.90;;;;;;4891667;28;20231;-78
2021/06/06 10:11:10;;;;;;;472.08;442.10;;;47.50;99.90;;;;;;4878066;28;20181;-78
2021/06/06 10:13:35;;;;;;;526.60;488.60;;;47.90;99.90;;;;;;4883711;28;20181;-77
2021/06/06 10:16:00;;;;;;;509.35;474.10;;;48.40;99.90;;;;;;4887535;28;20207;-79
2021/06/06 10:18:26;;;;;;;522.95;486.83;;;48.80;99.90;;;;;;4889658;28;20192;-80
2021/06/06 10:20:53;;;;;;;510.80;476.10;;;49.20;99.90;;;;;;4879779;28;20238;-81
2021/06/06 10:23:21;;;;;;;516.28;480.55;;;49.60;99.90;;;;;;4886764;28;20258;-78
2021/06/06 10:25:49;;;;;;;515.80;481.15;;;49.90;99.90;;;;;;4880792;28;20274;-78
2021/06/06 10:28:15;;;;;;;510.35;475.85;;;48.40;99.90;;;;;;4896135;28;20219;-80
2021/06/06 10:30:42;;;;;;;547.90;506.48;;;47.00;99.90;;;;;;4885236;28;20202;-75
2021/06/06 10:33:17;;;;;;;508.63;473.17;;;46.50;99.90;;;;;;4886533;28;20185;-82
2021/06/06 10:35:39;;;;;;;481.67;449.35;;;;;;;;;;4879101;28;20220;-75
2021/06/06 10:38:01;;;;;;;510.95;473.13;;;;;;;;;;4890440;28;20185;-77
2021/06/06 10:40:28;;;;;;;494.27;461.10;;;48.30;99.90;;;;;;4875136;28;20184;-81
2021/06/06 10:42:56;;;;;;;461.08;432.83;;;48.40;99.90;;;;;;4877021;28;20238;-81
2021/06/06 10:45:24;;;;;;;486.40;455.27;;;48.40;99.90;;;;;;4889297;28;20229;-77
2021/06/06 10:47:52;;;;;;;439.75;413.02;;;47.50;99.90;;;;;;4895475;28;20767;-80
2021/06/06 10:50:30;;;;;;;435.60;407.85;;;47.20;99.90;;;;;;4868178;28;20235;-81
2021/06/06 10:53:05;;;;;;;410.05;385.75;;;47.10;99.90;;;;;;4877537;28;20184;-79
2021/06/06 10:55:30;;;;;;;425.45;399.77;;;47.70;99.90;;;;;;4870730;28;20716;-82
2021/06/06 10:57:54;;;;;;;437.33;410.50;;;48.50;99.90;;;;;;4897524;28;20184;-83
2021/06/06 11:00:28;;;;;;;404.50;379.42;;;48.60;99.90;;;;;;4878003;28;20231;-76
2021/06/06 11:02:58;;;;;;;381.55;359.73;;;47.50;99.90;;;;;;4858995;28;20200;-81
2021/06/06 11:05:44;;;;;;;397.40;375.02;;;46.40;99.90;;;;;;4878091;28;20202;-78
2021/06/06 11:08:21;;;;;;;536.45;490.05;;;45.10;99.90;;;;;;4876589;28;20564;-79
2021/06/06 11:10:43;;;;;;;530.35;488.58;;;;;;;;;;4892252;28;20310;-82
2021/06/06 11:13:32;;;;;;;516.65;477.70;;;44.30;99.90;;;;;;4895655;28;20234;-78
2021/06/06 11:15:58;;;;;;;507.63;467.15;;;43.00;99.90;;;;;;4844718;28;20218;-79
2021/06/06 11:18:23;;;;;;;350.75;331.52;;;43.20;99.90;;;;;;4857649;28;20209;-78
2021/06/06 11:20:54;;;;;;;331.95;314.35;;;44.30;99.90;;;;;;4875485;28;20189;-80
2021/06/06 11:23:21;;;;;;;351.17;331.15;;;45.40;99.90;;;;;;4876275;28;20581;-77
2021/06/06 11:25:48;;;;;;;326.00;308.23;;;46.40;99.90;;;;;;4896774;28;20750;-80
2021/06/06 11:28:31;;;;;;;283.75;266.83;;;47.00;99.90;;;;;;4896641;28;20657;-79
2021/06/06 11:30:55;;;;;;;279.38;263.98;;;46.50;99.90;;;;;;4857966;28;20212;-78
2021/06/06 11:33:35;;;;;;;292.13;276.30;;;47.30;99.90;;;;;;4856345;28;20201;-78
2021/06/06 11:35:58;;;;;;;306.55;289.63;;;;;;;;;;4858357;28;20209;-78
2021/06/06 11:38:40;;;;;;;292.35;276.85;;;48.70;99.90;;;;;;4857848;28;20193;-78
2021/06/06 11:41:28;;;;;;;212.38;200.07;;;47.00;99.90;;;;;;4857822;28;20288;-80
2021/06/06 11:43:55;;;;;;;296.15;279.70;;;44.20;99.90;;;;;;4872374;28;20273;-77
2021/06/06 11:46:27;;;;;;;273.58;257.15;;;42.00;99.90;;;;;;4895140;28;20537;-81
2021/06/06 11:48:58;;;;;;;33.50;30.60;;;40.10;99.90;;;;;;4889833;28;21196;-77
2021/06/06 11:51:29;;;;;;;21.25;3.20;;;38.20;99.90;;;;;;4875940;28;20307;-78
2021/06/06 11:53:51;;;;;;;15.55;2.10;;;;;;;;;;4883010;28;20202;-81
2021/06/06 11:56:17;;;;;;;28.55;3.72;;;34.90;99.90;;;;;;4895167;28;20261;-81
2021/06/06 11:58:42;;;;;;;13.32;1.77;;;34.30;99.90;;;;;;4886761;28;20194;-83
2021/06/06 12:01:10;;;;;;;20.45;2.70;;;35.80;99.90;;;;;;4871734;28;20267;-83
2021/06/06 12:03:35;;;;;;;23.38;3.63;;;38.20;99.90;;;;;;4864156;28;20190;-83
2021/06/06 12:06:01;;;;;;;20.40;11.25;;;39.90;99.90;;;;;;4895085;28;20294;-83
2021/06/06 12:08:31;;;;;;;43.28;39.95;;;42.20;99.90;;;;;;4890737;28;20227;-82
2021/06/06 12:10:54;;;;;;;36.42;33.05;;;44.20;99.90;;;;;;4845390;28;20218;-80
2021/06/06 12:13:20;;;;;;;64.05;58.78;;;45.40;99.90;;;;;;4857451;28;20236;-82
2021/06/06 12:15:43;;;;;;;92.43;86.18;;;46.50;99.90;;;;;;4855957;28;20243;-80
2021/06/06 12:18:09;;;;;;;91.60;84.22;;;47.20;99.90;;;;;;4876323;28;20185;-80
2021/06/06 12:20:32;;;;;;;94.80;88.38;;;;;;;;;;4876592;28;20181;-83
2021/06/06 12:23:07;;;;;;;38.97;34.80;;;47.20;99.90;;;;;;4876478;28;20193;-79
2021/06/06 12:25:30;;;;;;;50.88;29.08;;;;;;;;;;4876329;28;20235;-83
2021/06/06 12:28:03;;;;;;;33.88;23.42;;;43.40;99.90;;;;;;4873899;28;20196;-84
2021/06/06 12:30:27;;;;;;;57.60;17.33;;;41.30;99.90;;;;;;4883236;28;20891;-81
2021/06/06 12:32:54;;;;;;;23.38;3.45;;;39.50;99.90;;;;;;4895817;28;20180;-79
2021/06/06 12:35:21;;;;;;;29.00;3.80;;;37.80;99.90;;;;;;4889953;28;20228;-82
2021/06/06 12:37:48;;;;;;;11.85;1.67;;;36.80;99.90;;;;;;4910850;28;20777;-82
2021/06/06 12:40:16;;;;;;;28.30;3.80;;;36.00;99.90;;;;;;4889606;28;20186;-81
2021/06/06 12:42:41;;;;;;;22.00;3.25;;;;;;;;;;4870529;28;20187;-75
2021/06/06 12:45:07;;;;;;;28.30;3.67;;;35.10;99.90;;;;;;4877111;28;20221;-81
2021/06/06 12:47:31;;;;;;;29.67;4.00;;;35.40;99.90;;;;;;4873908;28;20231;-81
2021/06/06 12:49:56;;;;;;;14.93;2.15;;;37.50;99.90;;;;;;4877283;28;20213;-81
2021/06/06 12:52:25;;;;;;;19.60;3.55;;;39.70;99.90;;;;;;4875052;28;20185;-80
2021/06/06 12:54:47;;;;;;;23.63;4.10;;;;;;;;;;4890587;28;20192;-79
2021/06/06 12:57:16;;;;;;;29.33;6.97;;;43.30;99.90;;;;;;4895148;28;20557;-81
2021/06/06 12:59:38;;;;;;;35.60;8.07;;;;;;;;;;4885908;28;20190;-78
2021/06/06 13:02:09;;;;;;;31.85;10.30;;;45.90;99.90;;;;;;4872310;28;20235;-79
2021/06/06 13:04:31;;;;;;;36.22;10.02;;;;;;;;;;4888374;28;20824;-78